Time;durP1;ratioP1;P1;durP2;ratioP2;P2;SDS_P1;SDS_P2;PMS_P1;PMS_P2;Temp;Humidity;BMP_temperature;BMP_pressure;BME280_temperature;BME280_humidity;BME280_pressure;Samples;Min_cycle;Max_cycle;Signal;HPM_P1;HPM_P2
2022/09/22 00:01:04;;;;;;;70.93;52.60;;;9.90;99.90;;;;;;5056614;28;20051;-73
2022/09/22 00:03:32;;;;;;;81.93;57.90;;;9.90;99.90;;;;;;5074107;28;20048;-72
2022/09/22 00:06:02;;;;;;;66.93;49.72;;;9.90;99.90;;;;;;5074046;28;20055;-72
2022/09/22 00:08:32;;;;;;;70.50;49.85;;;9.80;99.90;;;;;;5074310;28;20048;-73
2022/09/22 00:11:01;;;;;;;64.55;46.70;;;9.90;99.90;;;;;;5056060;28;20087;-72
2022/09/22 00:13:28;;;;;;;63.63;47.28;;;9.80;99.90;;;;;;5073869;28;20048;-73
2022/09/22 00:15:59;;;;;;;61.47;44.42;;;9.80;99.90;;;;;;5073607;28;20036;-72
2022/09/22 00:18:26;;;;;;;58.25;43.35;;;9.80;99.90;;;;;;5074451;28;20421;-72
2022/09/22 00:20:54;;;;;;;59.20;42.13;;;9.80;99.90;;;;;;5057276;28;20059;-73
2022/09/22 00:23:24;;;;;;;53.28;39.55;;;9.90;99.90;;;;;;5056876;28;20106;-72
2022/09/22 00:25:52;;;;;;;52.78;39.13;;;9.90;99.90;;;;;;5056075;28;20051;-72
2022/09/22 00:28:20;;;;;;;54.55;39.20;;;9.90;99.90;;;;;;5074166;28;20504;-73
2022/09/22 00:30:48;;;;;;;54.40;39.03;;;9.90;99.90;;;;;;5074214;28;20511;-72
2022/09/22 00:33:16;;;;;;;56.28;38.72;;;9.90;99.90;;;;;;5073346;28;20488;-72
2022/09/22 00:35:44;;;;;;;50.40;35.95;;;10.00;99.90;;;;;;5073788;28;20036;-72
2022/09/22 00:38:11;;;;;;;47.75;35.28;;;9.90;99.90;;;;;;5072440;28;20040;-72
2022/09/22 00:40:38;;;;;;;49.10;34.60;;;9.80;99.90;;;;;;5042167;28;20048;-72
2022/09/22 00:43:18;;;;;;;44.15;33.15;;;9.80;99.90;;;;;;5069870;28;20040;-72
2022/09/22 00:45:49;;;;;;;47.50;36.50;;;9.80;99.90;;;;;;5055348;28;20410;-72
2022/09/22 00:48:21;;;;;;;52.17;37.72;;;9.80;99.90;;;;;;5055491;28;20075;-72
2022/09/22 00:50:50;;;;;;;57.42;40.00;;;9.80;99.90;;;;;;5073374;28;20043;-73
2022/09/22 00:53:20;;;;;;;55.00;40.13;;;9.80;99.90;;;;;;5054243;28;20087;-72
2022/09/22 00:55:50;;;;;;;49.30;35.80;;;9.80;99.90;;;;;;5060358;28;20403;-72
2022/09/22 00:58:20;;;;;;;52.17;37.17;;;9.90;99.90;;;;;;5072732;28;20499;-72
2022/09/22 01:00:48;;;;;;;48.08;35.35;;;9.90;99.90;;;;;;5094022;28;20047;-72
2022/09/22 01:03:21;;;;;;;47.60;35.58;;;9.80;99.90;;;;;;5084907;28;20123;-72
2022/09/22 01:05:52;;;;;;;50.90;33.40;;;9.90;99.90;;;;;;5092996;28;20119;-73
2022/09/22 01:08:21;;;;;;;45.88;34.60;;;9.80;99.90;;;;;;5093527;28;20093;-72
2022/09/22 01:10:49;;;;;;;46.17;33.38;;;9.80;99.90;;;;;;5088543;28;20043;-72
2022/09/22 01:13:24;;;;;;;42.00;30.85;;;9.80;99.90;;;;;;5078603;28;20094;-73
2022/09/22 01:16:11;;;;;;;45.75;33.97;;;9.80;99.90;;;;;;5093466;28;20036;-72
2022/09/22 01:18:56;;;;;;;50.78;35.85;;;9.90;99.90;;;;;;5072046;28;20052;-72
2022/09/22 01:21:32;;;;;;;44.78;33.15;;;9.80;99.90;;;;;;5093059;28;20576;-72
2022/09/22 01:24:34;;;;;;;49.40;34.63;;;9.90;99.90;;;;;;5093061;28;20044;-72
2022/09/22 01:27:40;;;;;;;51.45;33.92;;;9.80;99.90;;;;;;5079383;28;20422;-73
2022/09/22 01:30:38;;;;;;;43.03;32.70;;;9.80;99.90;;;;;;5087968;28;20058;-72
2022/09/22 01:33:23;;;;;;;45.25;33.55;;;9.80;99.90;;;;;;5060319;28;20661;-71
2022/09/22 01:36:04;;;;;;;43.55;32.22;;;9.80;99.90;;;;;;5059858;28;20053;-72
2022/09/22 01:38:37;;;;;;;50.50;36.17;;;9.90;99.90;;;;;;5077354;28;20037;-72
2022/09/22 01:41:10;;;;;;;42.38;31.13;;;9.80;99.90;;;;;;5077744;28;20464;-72
2022/09/22 01:43:45;;;;;;;44.15;30.50;;;9.90;99.90;;;;;;5087474;28;20048;-72
2022/09/22 01:46:19;;;;;;;41.03;29.30;;;9.90;99.90;;;;;;5079490;28;20071;-73
2022/09/22 01:48:51;;;;;;;38.47;28.70;;;9.80;99.90;;;;;;5098034;28;20036;-72
2022/09/22 01:51:23;;;;;;;43.92;30.20;;;9.90;99.90;;;;;;5089350;28;20388;-71
2022/09/22 01:53:54;;;;;;;44.30;32.10;;;9.80;99.90;;;;;;5096588;28;20040;-73
2022/09/22 01:56:24;;;;;;;41.53;29.80;;;9.80;99.90;;;;;;5074944;28;20048;-72
2022/09/22 01:58:56;;;;;;;40.30;29.42;;;9.80;99.90;;;;;;5076940;28;20132;-72
2022/09/22 02:01:28;;;;;;;41.40;28.85;;;9.90;99.90;;;;;;5042452;28;20520;-72
2022/09/22 02:04:02;;;;;;;42.97;28.88;;;9.90;99.90;;;;;;5062764;28;20055;-72
2022/09/22 02:06:32;;;;;;;39.72;27.88;;;9.90;99.90;;;;;;5076407;28;20408;-72
2022/09/22 02:09:03;;;;;;;40.33;29.00;;;9.90;99.90;;;;;;5077338;28;20044;-72
2022/09/22 02:11:31;;;;;;;44.92;31.77;;;10.00;99.90;;;;;;5078252;28;20049;-72
2022/09/22 02:13:59;;;;;;;42.58;31.50;;;9.90;99.90;;;;;;5068815;28;20128;-73
2022/09/22 02:16:28;;;;;;;43.17;30.05;;;10.00;99.90;;;;;;5067077;28;20557;-73
2022/09/22 02:19:00;;;;;;;44.05;32.08;;;10.00;99.90;;;;;;5076099;28;20514;-73
2022/09/22 02:21:29;;;;;;;47.35;32.92;;;10.00;99.90;;;;;;5075844;28;20094;-73
2022/09/22 02:23:59;;;;;;;42.67;31.23;;;10.00;99.90;;;;;;5075495;28;20408;-72
2022/09/22 02:26:30;;;;;;;39.30;27.77;;;10.00;99.90;;;;;;5075927;28;20115;-72
2022/09/22 02:29:02;;;;;;;46.35;32.50;;;10.00;99.90;;;;;;5058520;28;20056;-72
2022/09/22 02:31:34;;;;;;;44.17;31.15;;;10.00;99.90;;;;;;5075565;28;20037;-72
2022/09/22 02:34:02;;;;;;;52.60;35.00;;;10.00;99.90;;;;;;5059144;28;20045;-72
2022/09/22 02:36:41;;;;;;;51.05;36.03;;;10.00;99.90;;;;;;5040695;28;20057;-73
2022/09/22 02:39:12;;;;;;;66.38;41.47;;;9.90;99.90;;;;;;5075135;28;20385;-72
2022/09/22 02:41:58;;;;;;;67.13;43.28;;;9.90;99.90;;;;;;5050183;28;20450;-71
2022/09/22 02:44:30;;;;;;;68.45;41.35;;;9.90;99.90;;;;;;5058991;28;20055;-72
2022/09/22 02:47:04;;;;;;;72.60;42.97;;;9.90;99.90;;;;;;5061365;28;20072;-72
2022/09/22 02:49:31;;;;;;;69.38;40.58;;;10.00;99.90;;;;;;5055791;28;20045;-72
2022/09/22 02:51:59;;;;;;;68.88;40.58;;;10.00;99.90;;;;;;5071178;28;20052;-73
2022/09/22 02:54:26;;;;;;;68.00;39.28;;;9.90;99.90;;;;;;5057375;28;20051;-73
2022/09/22 02:56:54;;;;;;;63.88;37.70;;;9.90;99.90;;;;;;5075252;28;20048;-72
2022/09/22 02:59:21;;;;;;;65.97;38.67;;;9.90;99.90;;;;;;5057547;28;20060;-72
2022/09/22 03:01:49;;;;;;;66.88;38.28;;;9.80;99.90;;;;;;5075824;28;20048;-72
2022/09/22 03:04:18;;;;;;;67.07;38.05;;;9.80;99.90;;;;;;5058052;28;20048;-72
2022/09/22 03:06:45;;;;;;;73.10;38.78;;;9.80;99.90;;;;;;5075830;28;20044;-73
2022/09/22 03:09:15;;;;;;;69.97;38.10;;;9.70;99.90;;;;;;5059966;28;20060;-72
2022/09/22 03:11:44;;;;;;;65.38;36.90;;;9.70;99.90;;;;;;5067356;28;20055;-72
2022/09/22 03:14:11;;;;;;;81.45;39.17;;;9.70;99.90;;;;;;5070805;28;20125;-72
2022/09/22 03:16:38;;;;;;;63.90;35.17;;;9.70;99.90;;;;;;5071986;28;20083;-73
2022/09/22 03:19:08;;;;;;;63.47;34.85;;;9.70;99.90;;;;;;5083554;28;20456;-72
2022/09/22 03:21:37;;;;;;;62.65;33.08;;;9.60;99.90;;;;;;5067905;28;20060;-72
2022/09/22 03:24:04;;;;;;;58.20;32.40;;;9.60;99.90;;;;;;5072688;28;20045;-71
2022/09/22 03:26:32;;;;;;;58.78;32.75;;;9.60;99.90;;;;;;5054842;28;20041;-72
2022/09/22 03:28:59;;;;;;;58.97;32.97;;;9.60;99.90;;;;;;5057068;28;20082;-72
2022/09/22 03:31:26;;;;;;;66.32;33.75;;;9.60;99.90;;;;;;5075565;28;20036;-72
2022/09/22 03:33:54;;;;;;;58.70;32.97;;;9.60;99.90;;;;;;5067126;28;20439;-72
2022/09/22 03:36:22;;;;;;;56.15;30.60;;;9.60;99.90;;;;;;5055687;28;20547;-72
2022/09/22 03:38:50;;;;;;;56.67;31.38;;;9.60;99.90;;;;;;5062262;28;20036;-72
2022/09/22 03:41:18;;;;;;;59.60;30.88;;;9.60;99.90;;;;;;5074814;28;20553;-72
2022/09/22 03:43:45;;;;;;;67.00;31.38;;;9.60;99.90;;;;;;5067377;28;20041;-72
2022/09/22 03:46:13;;;;;;;76.60;34.13;;;9.60;99.90;;;;;;5059733;28;20048;-73
2022/09/22 03:48:41;;;;;;;65.13;33.67;;;9.50;99.90;;;;;;5059902;28;20049;-72
2022/09/22 03:51:08;;;;;;;59.22;29.83;;;9.50;99.90;;;;;;5076857;28;20087;-72
2022/09/22 03:53:36;;;;;;;57.47;29.27;;;9.50;99.90;;;;;;5057484;28;20490;-72
2022/09/22 03:56:10;;;;;;;58.35;29.17;;;9.50;99.90;;;;;;5057820;28;20480;-71
2022/09/22 03:58:38;;;;;;;62.90;31.15;;;9.50;99.90;;;;;;5086473;28;20048;-72
2022/09/22 04:01:07;;;;;;;63.00;29.70;;;9.50;99.90;;;;;;5076889;28;20450;-71
2022/09/22 04:03:34;;;;;;;67.65;29.63;;;9.40;99.90;;;;;;5058310;28;20036;-72
2022/09/22 04:06:02;;;;;;;68.72;32.97;;;9.40;99.90;;;;;;5074382;28;20446;-71
2022/09/22 04:08:29;;;;;;;72.18;35.25;;;9.40;99.90;;;;;;5074689;28;20068;-72
2022/09/22 04:10:58;;;;;;;70.65;32.65;;;9.30;99.90;;;;;;5056989;28;20044;-72
2022/09/22 04:13:27;;;;;;;71.35;32.65;;;9.30;99.90;;;;;;5056457;28;20058;-71
2022/09/22 04:15:54;;;;;;;71.55;32.38;;;9.30;99.90;;;;;;5056510;28;20045;-71
2022/09/22 04:18:22;;;;;;;85.18;38.25;;;9.40;99.90;;;;;;5066363;28;20049;-72
2022/09/22 04:20:50;;;;;;;98.82;41.53;;;9.40;99.90;;;;;;5056792;28;20090;-72
2022/09/22 04:23:17;;;;;;;133.40;43.17;;;9.40;99.90;;;;;;5056238;28;20496;-72
2022/09/22 04:25:45;;;;;;;129.95;36.05;;;9.20;99.90;;;;;;5074901;28;20150;-72
2022/09/22 04:28:12;;;;;;;123.40;39.10;;;9.10;99.90;;;;;;5074496;28;20494;-72
2022/09/22 04:30:42;;;;;;;103.38;37.35;;;9.00;99.90;;;;;;5057378;28;20041;-72
2022/09/22 04:33:10;;;;;;;171.65;39.20;;;9.00;99.90;;;;;;5056882;28;20071;-72
2022/09/22 04:35:37;;;;;;;118.35;37.15;;;8.90;99.90;;;;;;5075873;28;20044;-72
2022/09/22 04:38:05;;;;;;;129.32;40.20;;;8.90;99.90;;;;;;5061775;28;20041;-72
2022/09/22 04:40:33;;;;;;;91.07;36.17;;;8.80;99.90;;;;;;5079799;28;20040;-72
2022/09/22 04:43:00;;;;;;;248.40;43.28;;;8.80;99.90;;;;;;5078025;28;20056;-72
2022/09/22 04:45:27;;;;;;;78.25;34.20;;;8.80;99.90;;;;;;5076544;28;20543;-71
2022/09/22 04:47:56;;;;;;;114.70;39.88;;;8.70;99.90;;;;;;5055926;28;20052;-72
2022/09/22 04:50:24;;;;;;;129.40;35.63;;;8.80;99.90;;;;;;5073249;28;20492;-72
2022/09/22 04:52:53;;;;;;;171.68;39.67;;;8.70;99.90;;;;;;5073370;28;20067;-72
2022/09/22 04:55:22;;;;;;;126.55;38.03;;;8.80;99.90;;;;;;5047346;28;20041;-73
2022/09/22 04:57:50;;;;;;;92.75;39.30;;;8.80;99.90;;;;;;5055396;28;20059;-72
2022/09/22 05:00:18;;;;;;;196.30;40.00;;;8.80;99.90;;;;;;5055299;28;20385;-72
2022/09/22 05:02:45;;;;;;;144.00;33.22;;;8.80;99.90;;;;;;5072532;28;20098;-72
2022/09/22 05:05:15;;;;;;;78.18;31.60;;;8.90;99.90;;;;;;5070807;28;20048;-72
2022/09/22 05:07:43;;;;;;;101.25;33.40;;;8.80;99.90;;;;;;5066611;28;20476;-73
2022/09/22 05:10:11;;;;;;;115.57;32.38;;;8.80;99.90;;;;;;5073179;28;20121;-72
2022/09/22 05:12:40;;;;;;;177.82;34.15;;;8.90;99.90;;;;;;5050287;28;20064;-72
2022/09/22 05:15:09;;;;;;;113.10;32.30;;;8.90;99.90;;;;;;5069894;28;20040;-71
2022/09/22 05:17:37;;;;;;;97.97;29.58;;;8.90;99.90;;;;;;5055247;28;20178;-72
2022/09/22 05:20:05;;;;;;;73.13;30.98;;;9.00;99.90;;;;;;5064994;28;20044;-72
2022/09/22 05:22:34;;;;;;;99.60;34.10;;;9.00;99.90;;;;;;5047152;28;20062;-72
2022/09/22 05:25:01;;;;;;;143.90;34.83;;;9.00;99.90;;;;;;5073077;28;20041;-73
2022/09/22 05:27:28;;;;;;;76.72;34.15;;;9.00;99.90;;;;;;5072958;28;20460;-73
2022/09/22 05:29:56;;;;;;;94.93;32.03;;;9.00;99.90;;;;;;5072804;28;20067;-72
2022/09/22 05:32:23;;;;;;;149.65;34.35;;;9.00;99.90;;;;;;5074389;28;20055;-73
2022/09/22 05:34:51;;;;;;;143.75;34.47;;;9.00;99.90;;;;;;5054926;28;20045;-72
2022/09/22 05:37:18;;;;;;;81.57;31.00;;;9.00;99.90;;;;;;5046463;28;20487;-73
2022/09/22 05:39:47;;;;;;;75.13;31.67;;;9.10;99.90;;;;;;5072933;28;20045;-72
2022/09/22 05:42:14;;;;;;;53.35;30.15;;;9.20;99.90;;;;;;5055307;28;20048;-72
2022/09/22 05:44:41;;;;;;;53.45;28.77;;;9.30;99.90;;;;;;5055263;28;20052;-72
2022/09/22 05:47:09;;;;;;;57.13;32.35;;;9.30;99.90;;;;;;5072813;28;20036;-72
2022/09/22 05:49:36;;;;;;;54.60;31.40;;;9.40;99.90;;;;;;5067710;28;20546;-73
2022/09/22 05:52:04;;;;;;;82.57;36.28;;;9.50;99.90;;;;;;5073373;28;20099;-72
2022/09/22 05:54:31;;;;;;;76.20;35.75;;;9.60;99.90;;;;;;5070930;28;20389;-72
2022/09/22 05:57:00;;;;;;;66.18;33.08;;;9.60;99.90;;;;;;5066677;28;20511;-72
2022/09/22 05:59:28;;;;;;;62.40;33.63;;;9.70;99.90;;;;;;5081300;28;20071;-72
2022/09/22 06:01:55;;;;;;;76.47;34.50;;;9.70;99.90;;;;;;5088279;28;20032;-72
2022/09/22 06:04:23;;;;;;;62.20;32.40;;;9.70;99.90;;;;;;5091152;28;20052;-72
2022/09/22 06:06:50;;;;;;;60.90;32.15;;;9.70;99.90;;;;;;5069266;28;20090;-72
2022/09/22 06:09:17;;;;;;;61.95;33.78;;;9.80;99.90;;;;;;5078987;28;20072;-72
2022/09/22 06:11:45;;;;;;;55.45;32.65;;;9.90;99.90;;;;;;5094139;28;20039;-73
2022/09/22 06:14:13;;;;;;;57.58;31.90;;;10.00;99.90;;;;;;5096208;28;20036;-71
2022/09/22 06:16:42;;;;;;;68.50;36.15;;;10.20;99.90;;;;;;5078874;28;20048;-72
2022/09/22 06:19:09;;;;;;;64.32;32.67;;;10.30;99.90;;;;;;5096419;28;20468;-72
2022/09/22 06:21:37;;;;;;;64.85;34.42;;;10.40;99.90;;;;;;5098263;28;20062;-71
2022/09/22 06:24:05;;;;;;;65.57;35.67;;;10.40;99.90;;;;;;5095477;28;20048;-72
2022/09/22 06:26:32;;;;;;;71.88;40.33;;;10.30;99.90;;;;;;5078587;28;20040;-72
2022/09/22 06:29:00;;;;;;;81.05;39.33;;;10.20;99.90;;;;;;5096993;28;20036;-72
2022/09/22 06:31:29;;;;;;;84.82;46.25;;;10.00;99.90;;;;;;5078377;28;20040;-72
2022/09/22 06:33:56;;;;;;;90.20;49.35;;;9.90;99.90;;;;;;5104725;28;20036;-72
2022/09/22 06:36:30;;;;;;;95.97;52.58;;;10.00;99.90;;;;;;5073337;28;20068;-73
2022/09/22 06:38:58;;;;;;;88.28;48.42;;;10.20;99.90;;;;;;5093161;28;20044;-73
2022/09/22 06:41:25;;;;;;;75.40;44.08;;;10.20;99.90;;;;;;5074367;28;20040;-72
2022/09/22 06:43:59;;;;;;;71.55;41.58;;;10.50;99.90;;;;;;5076006;28;20055;-72
2022/09/22 06:46:31;;;;;;;63.40;37.75;;;10.70;99.90;;;;;;5094564;28;20476;-71
2022/09/22 06:48:59;;;;;;;63.90;36.63;;;10.80;99.90;;;;;;5094435;28;20036;-72
2022/09/22 06:51:29;;;;;;;52.88;30.83;;;11.10;99.90;;;;;;5094052;28;20041;-71
2022/09/22 06:53:56;;;;;;;62.22;30.25;;;11.40;99.90;;;;;;5085626;28;20055;-71
2022/09/22 06:56:25;;;;;;;46.20;27.90;;;11.60;99.90;;;;;;5076922;28;20064;-72
2022/09/22 06:58:54;;;;;;;44.50;28.73;;;11.60;99.90;;;;;;5045946;28;20110;-72
2022/09/22 07:01:23;;;;;;;48.10;28.02;;;11.80;99.90;;;;;;5056785;28;20059;-71
2022/09/22 07:03:52;;;;;;;47.65;29.90;;;12.10;99.90;;;;;;5057288;28;20047;-73
2022/09/22 07:06:19;;;;;;;45.92;30.73;;;12.30;99.90;;;;;;5080002;28;20058;-72
2022/09/22 07:08:48;;;;;;;47.83;29.38;;;12.60;99.90;;;;;;5086025;28;20048;-72
2022/09/22 07:11:19;;;;;;;48.08;30.30;;;12.70;99.90;;;;;;5061467;28;20094;-72
2022/09/22 07:13:47;;;;;;;43.95;29.77;;;12.40;99.90;;;;;;5062529;28;20470;-72
2022/09/22 07:16:16;;;;;;;46.97;30.92;;;12.40;99.90;;;;;;5060443;28;20071;-73
2022/09/22 07:18:45;;;;;;;51.38;31.88;;;12.50;99.90;;;;;;5077137;28;20044;-72
2022/09/22 07:21:15;;;;;;;51.65;32.08;;;12.60;99.90;;;;;;5076735;28;20093;-72
2022/09/22 07:23:43;;;;;;;60.38;34.08;;;12.70;99.90;;;;;;5075112;28;20068;-72
2022/09/22 07:26:13;;;;;;;57.33;35.22;;;12.80;99.90;;;;;;5075088;28;20043;-72
2022/09/22 07:28:41;;;;;;;47.50;30.45;;;12.80;99.90;;;;;;5075337;28;20392;-72
2022/09/22 07:31:11;;;;;;;46.47;28.42;;;12.80;99.90;;;;;;5075159;28;20136;-73
2022/09/22 07:33:40;;;;;;;52.13;29.42;;;12.90;99.90;;;;;;5074777;28;20507;-71
2022/09/22 07:36:11;;;;;;;39.42;28.05;;;13.10;99.90;;;;;;5074846;28;20519;-73
2022/09/22 07:38:41;;;;;;;46.55;30.08;;;13.40;99.90;;;;;;5075338;28;20044;-73
2022/09/22 07:41:10;;;;;;;39.50;23.08;;;13.50;99.90;;;;;;5074748;28;20056;-73
2022/09/22 07:43:38;;;;;;;43.95;24.98;;;13.10;99.90;;;;;;5056877;28;20135;-72
2022/09/22 07:46:06;;;;;;;50.97;27.10;;;13.20;99.90;;;;;;5074700;28;20415;-72
2022/09/22 07:48:41;;;;;;;47.50;26.35;;;13.40;99.90;;;;;;5074686;28;20484;-73
2022/09/22 07:51:10;;;;;;;59.97;30.48;;;13.70;99.90;;;;;;5074976;28;20110;-73
2022/09/22 07:53:40;;;;;;;49.75;27.23;;;14.00;99.90;;;;;;5077986;28;20042;-71
2022/09/22 07:56:12;;;;;;;39.25;22.95;;;14.40;99.90;;;;;;5077639;28;20048;-71
2022/09/22 07:58:44;;;;;;;42.22;22.13;;;14.60;99.90;;;;;;5074769;28;20079;-73
2022/09/22 08:01:12;;;;;;;43.55;23.50;;;14.50;99.90;;;;;;5075115;28;20480;-73
2022/09/22 08:03:40;;;;;;;45.03;27.48;;;14.50;99.90;;;;;;5056320;28;20048;-74
2022/09/22 08:06:10;;;;;;;34.58;21.45;;;14.50;99.90;;;;;;5074057;28;20094;-74
2022/09/22 08:08:40;;;;;;;34.90;18.90;;;14.20;99.90;;;;;;5074136;28;20044;-72
2022/09/22 08:11:12;;;;;;;35.60;18.90;;;14.00;99.90;;;;;;5074286;28;20120;-72
2022/09/22 08:13:40;;;;;;;28.65;16.17;;;14.30;99.90;;;;;;5073680;28;20047;-73
2022/09/22 08:16:09;;;;;;;38.97;22.45;;;14.30;99.90;;;;;;5074110;28;20048;-73
2022/09/22 08:18:36;;;;;;;36.97;21.23;;;14.20;99.90;;;;;;5055547;28;20056;-74
2022/09/22 08:21:04;;;;;;;34.63;20.13;;;14.10;99.90;;;;;;5055928;28;20221;-74
2022/09/22 08:23:31;;;;;;;35.42;19.23;;;14.00;99.90;;;;;;5055555;28;20472;-73
2022/09/22 08:26:05;;;;;;;36.15;19.60;;;14.30;99.90;;;;;;5055305;28;20048;-73
2022/09/22 08:28:33;;;;;;;37.13;21.70;;;14.60;99.90;;;;;;5073812;28;20040;-72
2022/09/22 08:31:00;;;;;;;37.20;21.13;;;14.90;99.90;;;;;;5073449;28;20045;-73
2022/09/22 08:33:30;;;;;;;39.08;20.42;;;15.10;99.90;;;;;;5055570;28;20048;-71
2022/09/22 08:36:02;;;;;;;43.03;20.42;;;15.20;99.90;;;;;;5073175;28;20508;-71
2022/09/22 08:38:31;;;;;;;42.05;20.88;;;14.90;99.90;;;;;;5073366;28;20116;-71
2022/09/22 08:41:16;;;;;;;43.63;22.05;;;14.90;99.90;;;;;;5073820;28;20068;-71
2022/09/22 08:43:46;;;;;;;49.90;22.33;;;14.90;99.90;;;;;;5074161;28;20417;-71
2022/09/22 08:46:15;;;;;;;46.05;21.95;;;14.90;99.90;;;;;;5073516;28;20163;-71
2022/09/22 08:51:54;;;;;;;39.13;15.90;;;14.70;99.90;;;;;;5075710;28;20051;-72
2022/09/22 08:54:26;;;;;;;39.72;17.58;;;14.80;99.90;;;;;;5074370;28;20070;-73
2022/09/22 08:57:29;;;;;;;42.85;18.42;;;14.80;99.90;;;;;;5074606;28;20415;-73
2022/09/22 09:00:04;;;;;;;31.90;14.55;;;15.00;99.90;;;;;;5057928;28;20056;-72
2022/09/22 09:02:45;;;;;;;20.63;10.05;;;15.00;99.90;;;;;;5073625;28;20045;-72
2022/09/22 09:05:49;;;;;;;17.60;9.43;;;15.20;99.90;;;;;;5073589;28;20049;-72
2022/09/22 09:08:44;;;;;;;22.58;12.13;;;15.20;99.90;;;;;;5073657;28;20115;-72
2022/09/22 09:11:23;;;;;;;19.58;9.77;;;15.30;99.90;;;;;;5073617;28;20131;-72
2022/09/22 09:14:04;;;;;;;16.98;9.68;;;15.20;99.90;;;;;;5055042;28;20222;-72
2022/09/22 09:16:44;;;;;;;12.23;7.75;;;15.40;99.90;;;;;;5073320;28;20503;-72
2022/09/22 09:19:17;;;;;;;12.68;8.00;;;15.50;99.90;;;;;;5073961;28;20040;-72
2022/09/22 09:21:50;;;;;;;13.55;7.97;;;15.40;99.90;;;;;;5073751;28;20106;-71
2022/09/22 09:24:30;;;;;;;12.07;6.88;;;15.60;99.90;;;;;;5055443;28;20052;-72
2022/09/22 09:27:07;;;;;;;27.17;10.43;;;15.80;99.90;;;;;;5076507;28;20048;-73
2022/09/22 09:29:41;;;;;;;19.10;9.75;;;16.00;99.90;;;;;;5057725;28;20045;-72
2022/09/22 09:32:18;;;;;;;11.80;7.47;;;16.20;99.90;;;;;;5073833;28;20112;-71
2022/09/22 09:34:46;;;;;;;14.68;8.43;;;16.00;99.90;;;;;;5072971;28;20051;-72
2022/09/22 09:37:17;;;;;;;13.85;9.18;;;16.10;99.90;;;;;;5073170;28;20407;-71
2022/09/22 09:39:45;;;;;;;17.45;8.57;;;16.20;99.90;;;;;;5073405;28;20116;-71
2022/09/22 09:42:24;;;;;;;15.85;8.10;;;16.30;99.90;;;;;;5073320;28;20094;-72
2022/09/22 09:44:53;;;;;;;13.02;7.78;;;16.40;99.90;;;;;;5073391;28;20519;-72
2022/09/22 09:47:43;;;;;;;19.05;10.13;;;16.20;99.90;;;;;;5077619;28;20124;-72
2022/09/22 09:50:11;;;;;;;17.60;7.47;;;16.30;99.90;;;;;;5060802;28;20044;-71
2022/09/22 09:52:41;;;;;;;11.82;7.13;;;16.20;99.90;;;;;;5079473;28;20044;-71
2022/09/22 09:55:25;;;;;;;9.55;5.90;;;16.10;99.90;;;;;;5080125;28;20098;-71
2022/09/22 09:58:07;;;;;;;19.48;10.25;;;16.00;99.90;;;;;;5100120;22;20156;-77
2022/09/22 10:00:52;;;;;;;17.40;10.05;;;15.80;99.90;;;;;;5075538;28;20123;-77
2022/09/22 10:03:26;;;;;;;16.83;9.50;;;15.60;99.90;;;;;;5080999;28;20032;-78
2022/09/22 10:06:01;;;;;;;7.25;5.18;;;15.70;99.90;;;;;;5094961;28;20048;-79
2022/09/22 10:08:35;;;;;;;10.65;4.85;;;15.70;99.90;;;;;;5083962;28;20042;-79
2022/09/22 10:11:04;;;;;;;10.65;6.15;;;15.70;99.90;;;;;;5081249;28;20067;-78
2022/09/22 10:13:34;;;;;;;10.52;6.65;;;16.10;99.90;;;;;;5080597;28;20498;-78
2022/09/22 10:16:05;;;;;;;13.02;7.88;;;16.50;99.90;;;;;;5065712;28;20113;-80
2022/09/22 10:18:40;;;;;;;11.52;7.05;;;16.70;99.90;;;;;;5087626;28;20506;-78
2022/09/22 10:21:14;;;;;;;8.73;5.60;;;16.60;99.90;;;;;;5068081;28;20044;-79
2022/09/22 10:23:43;;;;;;;10.65;5.75;;;16.60;99.90;;;;;;5067886;28;20045;-79
2022/09/22 10:26:25;;;;;;;8.27;4.95;;;16.60;99.90;;;;;;5067299;28;20044;-78
2022/09/22 10:29:17;;;;;;;7.43;4.15;;;16.70;99.90;;;;;;5069535;28;20071;-78
2022/09/22 10:32:12;;;;;;;8.50;5.00;;;16.90;99.90;;;;;;5080324;28;20045;-78
2022/09/22 10:34:43;;;;;;;8.00;5.68;;;17.20;99.90;;;;;;5061955;28;20143;-77
2022/09/22 10:37:12;;;;;;;10.00;6.72;;;17.30;99.90;;;;;;5080331;28;20139;-78
2022/09/22 10:39:49;;;;;;;7.43;4.82;;;17.40;99.90;;;;;;5080484;28;20060;-78
2022/09/22 10:42:27;;;;;;;12.27;7.97;;;17.70;99.90;;;;;;5065589;28;20067;-77
2022/09/22 10:44:59;;;;;;;6.78;4.93;;;17.60;99.90;;;;;;5066118;28;20052;-78
2022/09/22 10:47:31;;;;;;;6.82;3.15;;;17.80;99.90;;;;;;5065342;28;20162;-78
2022/09/22 10:50:29;;;;;;;7.93;4.20;;;17.70;99.90;;;;;;5067755;28;20058;-79
2022/09/22 10:53:07;;;;;;;5.55;3.33;;;17.90;99.90;;;;;;5075859;28;20072;-79
2022/09/22 10:55:38;;;;;;;4.65;2.72;;;18.10;99.90;;;;;;5071482;28;20197;-77
2022/09/22 10:58:30;;;;;;;4.38;3.03;;;18.00;99.90;;;;;;5061797;28;20044;-77
2022/09/22 11:01:13;;;;;;;11.18;7.10;;;17.70;99.90;;;;;;5064397;28;20048;-77
2022/09/22 11:04:01;;;;;;;7.97;4.78;;;17.90;99.90;;;;;;5078109;28;20045;-79
2022/09/22 11:12:41;;;;;;;7.30;3.83;;;18.10;99.90;;;;;;5054672;28;20047;-78
2022/09/22 11:15:26;;;;;;;5.72;3.35;;;18.10;99.90;;;;;;5079017;28;20047;-76
2022/09/22 11:18:17;;;;;;;8.30;4.18;;;18.10;99.90;;;;;;5090827;28;20143;-77
2022/09/22 11:20:52;;;;;;;6.75;3.63;;;18.40;99.90;;;;;;5058799;28;20048;-76
2022/09/22 11:23:50;;;;;;;4.80;3.15;;;18.30;99.90;;;;;;5060595;28;20055;-76
2022/09/22 11:26:55;;;;;;;6.53;4.20;;;18.70;99.80;;;;;;5091555;28;20169;-76
2022/09/22 11:29:46;;;;;;;9.10;5.70;;;19.00;99.30;;;;;;5053705;28;20060;-77
2022/09/22 11:32:36;;;;;;;6.63;4.53;;;19.40;98.60;;;;;;5081616;28;20052;-77
2022/09/22 11:35:23;;;;;;;6.45;3.97;;;19.70;97.20;;;;;;5084651;28;20048;-76
2022/09/22 11:38:00;;;;;;;8.50;3.80;;;19.90;95.40;;;;;;5088552;28;20042;-76
2022/09/22 11:40:47;;;;;;;8.15;5.20;;;19.80;95.50;;;;;;5077711;28;20135;-77
2022/09/22 11:43:48;;;;;;;10.88;5.07;;;19.60;95.10;;;;;;5092111;28;20044;-76
2022/09/22 11:46:26;;;;;;;7.85;4.68;;;19.30;95.70;;;;;;5092863;28;20050;-76
2022/09/22 11:49:09;;;;;;;29.05;22.83;;;18.80;95.20;;;;;;5085803;28;20047;-75
2022/09/22 11:52:00;;;;;;;6.45;3.38;;;18.60;95.80;;;;;;5068694;28;20082;-78
2022/09/22 11:54:51;;;;;;;6.10;3.95;;;18.10;95.30;;;;;;5079251;28;20040;-77
2022/09/22 11:57:23;;;;;;;5.47;3.40;;;17.70;97.00;;;;;;5071367;28;20048;-78
2022/09/22 11:59:53;;;;;;;8.00;4.18;;;17.80;97.00;;;;;;5078533;28;20114;-74
2022/09/22 12:02:26;;;;;;;8.25;4.38;;;18.00;96.90;;;;;;5080292;28;20040;-77
2022/09/22 12:04:59;;;;;;;11.65;5.18;;;17.80;97.70;;;;;;5077320;28;20041;-77
2022/09/22 12:07:29;;;;;;;8.52;4.15;;;17.60;98.80;;;;;;5077789;28;20040;-78
2022/09/22 12:10:01;;;;;;;9.48;5.20;;;17.60;99.20;;;;;;5076740;28;20041;-76
2022/09/22 12:12:32;;;;;;;7.93;4.20;;;17.50;99.90;;;;;;5075581;28;20044;-77
2022/09/22 12:15:06;;;;;;;9.82;4.47;;;17.50;99.70;;;;;;5075969;28;20041;-76
2022/09/22 12:17:41;;;;;;;7.13;3.88;;;17.60;99.50;;;;;;5048161;28;20049;-76
2022/09/22 12:20:21;;;;;;;6.45;4.30;;;17.50;99.00;;;;;;5077332;28;20045;-75
2022/09/22 12:23:15;;;;;;;8.40;5.63;;;17.40;98.90;;;;;;5083840;28;20044;-75
2022/09/22 12:25:45;;;;;;;12.02;4.68;;;17.30;99.10;;;;;;5084991;28;20051;-76
2022/09/22 12:28:23;;;;;;;10.55;5.78;;;17.10;98.90;;;;;;5059607;28;20047;-76
2022/09/22 12:30:59;;;;;;;6.40;3.95;;;17.20;98.40;;;;;;5085260;28;20382;-76
2022/09/22 12:33:28;;;;;;;7.57;4.20;;;17.20;97.90;;;;;;5062482;28;20484;-76
2022/09/22 12:35:56;;;;;;;6.85;5.13;;;17.50;98.10;;;;;;5074064;28;20106;-77
2022/09/22 12:38:25;;;;;;;25.75;14.40;;;17.80;98.00;;;;;;5061602;28;20092;-76
2022/09/22 12:40:57;;;;;;;8.32;5.35;;;18.30;97.20;;;;;;5074910;28;20045;-76
2022/09/22 12:43:27;;;;;;;4.65;3.08;;;18.60;96.30;;;;;;5076078;28;20115;-76
2022/09/22 12:45:57;;;;;;;5.38;3.65;;;18.50;94.90;;;;;;5077956;28;20083;-76
2022/09/22 12:48:29;;;;;;;5.07;2.70;;;18.50;94.60;;;;;;5068303;28;20052;-76
2022/09/22 12:51:15;;;;;;;3.42;2.28;;;18.30;92.50;;;;;;5080772;28;20487;-76
2022/09/22 12:53:43;;;;;;;4.88;2.47;;;18.10;91.20;;;;;;5067079;28;20096;-76
2022/09/22 12:56:47;;;;;;;5.55;2.60;;;18.20;90.60;;;;;;5075937;28;20044;-76
2022/09/22 12:59:55;;;;;;;3.70;2.30;;;18.30;89.60;;;;;;5058026;28;20056;-77
2022/09/22 13:02:30;;;;;;;4.85;2.90;;;18.50;90.10;;;;;;5083291;28;20059;-75
2022/09/22 13:05:33;;;;;;;3.35;2.58;;;18.60;90.60;;;;;;5072722;28;20094;-75
2022/09/22 13:08:01;;;;;;;5.65;3.03;;;18.80;90.80;;;;;;5056377;28;20492;-75
2022/09/22 13:10:41;;;;;;;5.72;3.20;;;18.60;91.50;;;;;;5070810;28;20048;-76
2022/09/22 13:13:22;;;;;;;10.73;6.40;;;18.70;91.20;;;;;;5075702;28;20066;-75